sensor_id;sensor_type;location;lat;lon;timestamp;pressure;altitude;pressure_sealevel;temperature;humidity
10716;BME280;5409;42.620;23.316;2024-03-23T00:53:00;92323.34;;;1.95;60.67
10716;BME280;5409;42.620;23.316;2024-03-23T00:55:26;92326.22;;;1.99;61.19
10716;BME280;5409;42.620;23.316;2024-03-23T00:57:51;92322.50;;;2.13;60.31
10716;BME280;5409;42.620;23.316;2024-03-23T01:00:16;92321.78;;;1.94;59.56
10716;BME280;5409;42.620;23.316;2024-03-23T01:02:42;92320.66;;;1.90;60.48
10716;BME280;5409;42.620;23.316;2024-03-23T01:05:07;92328.22;;;1.85;59.18
10716;BME280;5409;42.620;23.316;2024-03-23T01:07:33;92324.88;;;1.85;59.46
10716;BME280;5409;42.620;23.316;2024-03-23T01:09:58;92325.97;;;1.77;58.84
10716;BME280;5409;42.620;23.316;2024-03-23T01:12:23;92302.13;;;1.95;54.81
10716;BME280;5409;42.620;23.316;2024-03-23T01:14:49;92316.59;;;2.24;54.60
10716;BME280;5409;42.620;23.316;2024-03-23T01:17:14;92317.81;;;2.22;56.96
10716;BME280;5409;42.620;23.316;2024-03-23T01:19:39;92313.25;;;2.12;56.31
10716;BME280;5409;42.620;23.316;2024-03-23T01:22:06;92312.69;;;2.10;56.86
10716;BME280;5409;42.620;23.316;2024-03-23T01:24:32;92322.38;;;2.08;56.91
10716;BME280;5409;42.620;23.316;2024-03-23T01:26:57;92297.47;;;1.92;58.74
10716;BME280;5409;42.620;23.316;2024-03-23T01:29:22;92302.69;;;1.85;58.88
10716;BME280;5409;42.620;23.316;2024-03-23T01:31:48;92310.13;;;2.10;57.71
10716;BME280;5409;42.620;23.316;2024-03-23T01:34:14;92308.69;;;2.14;58.02
10716;BME280;5409;42.620;23.316;2024-03-23T01:36:39;92313.59;;;2.15;61.85
10716;BME280;5409;42.620;23.316;2024-03-23T01:39:05;92309.72;;;2.13;58.92
10716;BME280;5409;42.620;23.316;2024-03-23T01:41:30;92311.59;;;2.06;58.60
10716;BME280;5409;42.620;23.316;2024-03-23T01:43:55;92304.69;;;1.83;57.93
10716;BME280;5409;42.620;23.316;2024-03-23T01:46:22;92304.00;;;1.76;57.78
10716;BME280;5409;42.620;23.316;2024-03-23T01:48:47;92309.47;;;1.91;57.00
10716;BME280;5409;42.620;23.316;2024-03-23T01:51:13;92307.13;;;1.90;57.23
10716;BME280;5409;42.620;23.316;2024-03-23T01:53:38;92313.66;;;1.86;57.79
10716;BME280;5409;42.620;23.316;2024-03-23T01:56:04;92308.56;;;1.74;57.75
10716;BME280;5409;42.620;23.316;2024-03-23T01:58:30;92307.22;;;1.71;57.08
10716;BME280;5409;42.620;23.316;2024-03-23T02:00:57;92316.63;;;1.71;57.53
10716;BME280;5409;42.620;23.316;2024-03-23T02:05:53;92315.53;;;1.67;59.95
10716;BME280;5409;42.620;23.316;2024-03-23T02:08:21;92318.75;;;1.62;60.41
10716;BME280;5409;42.620;23.316;2024-03-23T02:10:47;92314.16;;;1.53;59.87
10716;BME280;5409;42.620;23.316;2024-03-23T02:13:14;92315.75;;;1.65;60.97
10716;BME280;5409;42.620;23.316;2024-03-23T02:15:40;92309.63;;;1.66;60.55
10716;BME280;5409;42.620;23.316;2024-03-23T02:18:07;92300.75;;;1.57;59.26
10716;BME280;5409;42.620;23.316;2024-03-23T02:20:32;92308.00;;;1.72;60.21
10716;BME280;5409;42.620;23.316;2024-03-23T02:22:58;92309.56;;;1.73;61.57
10716;BME280;5409;42.620;23.316;2024-03-23T02:25:23;92302.84;;;1.49;61.88
10716;BME280;5409;42.620;23.316;2024-03-23T02:27:49;92317.84;;;1.57;62.64
10716;BME280;5409;42.620;23.316;2024-03-23T02:30:14;92314.53;;;1.68;63.32
10716;BME280;5409;42.620;23.316;2024-03-23T02:32:40;92296.00;;;1.72;63.01
10716;BME280;5409;42.620;23.316;2024-03-23T02:35:06;92318.00;;;1.85;64.48
10716;BME280;5409;42.620;23.316;2024-03-23T02:37:31;92299.88;;;1.75;64.43
10716;BME280;5409;42.620;23.316;2024-03-23T02:39:58;92319.66;;;1.80;62.46
10716;BME280;5409;42.620;23.316;2024-03-23T02:42:23;92317.38;;;1.60;62.13
10716;BME280;5409;42.620;23.316;2024-03-23T02:44:49;92314.81;;;1.48;62.33
10716;BME280;5409;42.620;23.316;2024-03-23T02:47:14;92309.25;;;1.40;61.41
10716;BME280;5409;42.620;23.316;2024-03-23T02:49:39;92305.00;;;1.34;62.88
10716;BME280;5409;42.620;23.316;2024-03-23T02:52:05;92308.22;;;1.41;62.64
10716;BME280;5409;42.620;23.316;2024-03-23T02:54:30;92273.69;;;1.26;61.76
10716;BME280;5409;42.620;23.316;2024-03-23T02:56:56;92307.09;;;1.55;60.14
10716;BME280;5409;42.620;23.316;2024-03-23T02:59:21;92302.94;;;1.42;61.38
10716;BME280;5409;42.620;23.316;2024-03-23T03:01:47;92302.97;;;1.54;61.16
10716;BME280;5409;42.620;23.316;2024-03-23T03:04:12;92304.44;;;1.73;61.16
10716;BME280;5409;42.620;23.316;2024-03-23T03:06:37;92294.94;;;1.50;61.95
10716;BME280;5409;42.620;23.316;2024-03-23T03:09:03;92300.25;;;1.37;61.61
10716;BME280;5409;42.620;23.316;2024-03-23T03:11:28;92311.63;;;1.53;62.14
10716;BME280;5409;42.620;23.316;2024-03-23T03:13:54;92282.50;;;1.42;61.60
10716;BME280;5409;42.620;23.316;2024-03-23T03:16:19;92306.56;;;1.35;58.85
10716;BME280;5409;42.620;23.316;2024-03-23T03:18:44;92305.88;;;1.27;58.53
10716;BME280;5409;42.620;23.316;2024-03-23T03:21:11;92295.78;;;1.21;60.51
10716;BME280;5409;42.620;23.316;2024-03-23T03:23:38;92305.88;;;1.27;61.53
10716;BME280;5409;42.620;23.316;2024-03-23T03:26:04;92311.44;;;1.36;61.94
10716;BME280;5409;42.620;23.316;2024-03-23T03:28:31;92308.00;;;1.30;62.32
10716;BME280;5409;42.620;23.316;2024-03-23T03:30:57;92303.84;;;1.48;62.46
10716;BME280;5409;42.620;23.316;2024-03-23T03:33:22;92311.81;;;1.51;61.14
10716;BME280;5409;42.620;23.316;2024-03-23T03:35:48;92309.84;;;1.23;61.71
10716;BME280;5409;42.620;23.316;2024-03-23T03:38:13;92305.94;;;1.09;61.73
10716;BME280;5409;42.620;23.316;2024-03-23T03:40:38;92309.53;;;1.20;60.68
10716;BME280;5409;42.620;23.316;2024-03-23T03:43:04;92310.72;;;1.17;60.47
10716;BME280;5409;42.620;23.316;2024-03-23T03:45:29;92307.91;;;1.07;60.28
10716;BME280;5409;42.620;23.316;2024-03-23T03:47:54;92311.47;;;1.06;61.38
10716;BME280;5409;42.620;23.316;2024-03-23T03:50:22;92311.84;;;1.21;61.04
10716;BME280;5409;42.620;23.316;2024-03-23T03:52:47;92306.31;;;1.24;61.49
10716;BME280;5409;42.620;23.316;2024-03-23T03:55:14;92306.13;;;1.08;61.29
10716;BME280;5409;42.620;23.316;2024-03-23T03:57:39;92306.06;;;1.14;61.08
10716;BME280;5409;42.620;23.316;2024-03-23T04:00:05;92291.00;;;1.24;62.65
10716;BME280;5409;42.620;23.316;2024-03-23T04:02:31;92308.03;;;1.42;62.22
10716;BME280;5409;42.620;23.316;2024-03-23T04:04:56;92304.94;;;1.10;61.94
10716;BME280;5409;42.620;23.316;2024-03-23T04:07:22;92301.97;;;0.95;62.19
10716;BME280;5409;42.620;23.316;2024-03-23T04:09:48;92303.88;;;1.00;61.36
10716;BME280;5409;42.620;23.316;2024-03-23T04:12:14;92304.34;;;1.08;61.55
10716;BME280;5409;42.620;23.316;2024-03-23T04:14:40;92288.25;;;0.96;61.74
10716;BME280;5409;42.620;23.316;2024-03-23T04:17:06;92310.03;;;1.10;62.18
10716;BME280;5409;42.620;23.316;2024-03-23T04:19:32;92309.91;;;1.05;63.15
10716;BME280;5409;42.620;23.316;2024-03-23T04:21:57;92312.00;;;1.08;62.78
10716;BME280;5409;42.620;23.316;2024-03-23T04:24:22;92304.06;;;1.16;62.44
10716;BME280;5409;42.620;23.316;2024-03-23T04:26:48;92305.88;;;1.27;63.26
10716;BME280;5409;42.620;23.316;2024-03-23T04:29:13;92309.16;;;1.16;63.66
10716;BME280;5409;42.620;23.316;2024-03-23T04:31:38;92309.91;;;1.05;63.59
10716;BME280;5409;42.620;23.316;2024-03-23T04:34:04;92312.28;;;1.18;63.49
10716;BME280;5409;42.620;23.316;2024-03-23T04:36:29;92305.22;;;1.02;62.22
10716;BME280;5409;42.620;23.316;2024-03-23T04:38:56;92318.34;;;1.06;63.13
10716;BME280;5409;42.620;23.316;2024-03-23T04:41:22;92320.00;;;1.12;63.17
10716;BME280;5409;42.620;23.316;2024-03-23T04:43:47;92315.91;;;1.11;63.63
10716;BME280;5409;42.620;23.316;2024-03-23T04:46:12;92307.50;;;1.10;64.00
10716;BME280;5409;42.620;23.316;2024-03-23T04:48:38;92327.28;;;1.26;64.37
10716;BME280;5409;42.620;23.316;2024-03-23T04:51:03;92330.25;;;1.23;63.53
10716;BME280;5409;42.620;23.316;2024-03-23T04:53:29;92309.91;;;1.35;64.18
10716;BME280;5409;42.620;23.316;2024-03-23T04:55:57;92278.44;;;1.11;64.11
10716;BME280;5409;42.620;23.316;2024-03-23T04:58:24;92321.69;;;1.48;64.05
10716;BME280;5409;42.620;23.316;2024-03-23T05:00:57;92318.03;;;1.44;63.05
10716;BME280;5409;42.620;23.316;2024-03-23T05:03:22;92325.94;;;1.54;63.07
10716;BME280;5409;42.620;23.316;2024-03-23T05:05:49;92321.09;;;1.64;63.05
10716;BME280;5409;42.620;23.316;2024-03-23T05:08:15;92313.34;;;1.82;62.93
10716;BME280;5409;42.620;23.316;2024-03-23T05:10:42;92323.38;;;2.07;62.31
10716;BME280;5409;42.620;23.316;2024-03-23T05:13:07;92326.69;;;2.07;61.73
10716;BME280;5409;42.620;23.316;2024-03-23T05:15:32;92308.47;;;2.04;63.27
10716;BME280;5409;42.620;23.316;2024-03-23T05:17:58;92318.69;;;2.15;62.83
10716;BME280;5409;42.620;23.316;2024-03-23T05:20:23;92319.16;;;2.36;61.76
10716;BME280;5409;42.620;23.316;2024-03-23T05:22:49;92307.00;;;2.43;63.11
10716;BME280;5409;42.620;23.316;2024-03-23T05:25:15;92311.44;;;2.59;62.68
10716;BME280;5409;42.620;23.316;2024-03-23T05:27:41;92308.44;;;2.62;62.21
10716;BME280;5409;42.620;23.316;2024-03-23T05:30:07;92305.09;;;2.73;62.68
10716;BME280;5409;42.620;23.316;2024-03-23T05:32:34;92313.84;;;2.89;62.17
10716;BME280;5409;42.620;23.316;2024-03-23T05:34:59;92308.34;;;3.09;62.65
10716;BME280;5409;42.620;23.316;2024-03-23T05:37:24;92311.81;;;3.31;61.39
10716;BME280;5409;42.620;23.316;2024-03-23T05:39:51;92307.97;;;3.45;60.61
10716;BME280;5409;42.620;23.316;2024-03-23T05:42:17;92300.25;;;3.57;60.66
10716;BME280;5409;42.620;23.316;2024-03-23T05:44:45;92284.19;;;3.61;60.26
10716;BME280;5409;42.620;23.316;2024-03-23T05:47:11;92304.31;;;3.86;60.99
10716;BME280;5409;42.620;23.316;2024-03-23T05:49:39;92310.97;;;3.70;60.29
10716;BME280;5409;42.620;23.316;2024-03-23T05:52:07;92318.44;;;3.88;59.06
10716;BME280;5409;42.620;23.316;2024-03-23T05:54:32;92320.94;;;4.00;58.83
10716;BME280;5409;42.620;23.316;2024-03-23T05:56:58;92309.50;;;4.08;57.86
10716;BME280;5409;42.620;23.316;2024-03-23T05:59:24;92320.63;;;4.13;58.17
10716;BME280;5409;42.620;23.316;2024-03-23T06:01:49;92314.19;;;4.11;58.44
10716;BME280;5409;42.620;23.316;2024-03-23T06:04:15;92307.09;;;4.18;58.83
10716;BME280;5409;42.620;23.316;2024-03-23T06:06:40;92312.59;;;4.26;58.26
10716;BME280;5409;42.620;23.316;2024-03-23T06:09:06;92311.38;;;4.29;57.70
10716;BME280;5409;42.620;23.316;2024-03-23T06:11:31;92307.84;;;4.52;55.84
10716;BME280;5409;42.620;23.316;2024-03-23T06:13:57;92308.75;;;4.62;55.55
10716;BME280;5409;42.620;23.316;2024-03-23T06:16:22;92300.50;;;4.60;55.69
10716;BME280;5409;42.620;23.316;2024-03-23T06:18:52;92289.78;;;4.63;55.42
10716;BME280;5409;42.620;23.316;2024-03-23T06:21:18;92305.75;;;4.70;55.50
10716;BME280;5409;42.620;23.316;2024-03-23T06:23:44;92302.81;;;4.78;56.97
10716;BME280;5409;42.620;23.316;2024-03-23T06:26:16;92303.69;;;4.67;56.99
10716;BME280;5409;42.620;23.316;2024-03-23T06:28:41;92305.25;;;4.90;55.54
10716;BME280;5409;42.620;23.316;2024-03-23T06:31:10;92309.38;;;4.91;56.38
10716;BME280;5409;42.620;23.316;2024-03-23T06:33:36;92304.25;;;5.13;56.61
10716;BME280;5409;42.620;23.316;2024-03-23T06:36:01;92301.19;;;5.16;55.78
10716;BME280;5409;42.620;23.316;2024-03-23T06:38:28;92317.44;;;5.21;55.99
10716;BME280;5409;42.620;23.316;2024-03-23T06:40:53;92312.09;;;5.28;55.12
10716;BME280;5409;42.620;23.316;2024-03-23T06:43:19;92315.25;;;5.35;57.08
10716;BME280;5409;42.620;23.316;2024-03-23T06:45:44;92315.03;;;5.37;57.37
10716;BME280;5409;42.620;23.316;2024-03-23T06:48:09;92315.59;;;5.44;56.88
10716;BME280;5409;42.620;23.316;2024-03-23T06:50:35;92320.63;;;5.55;55.43
10716;BME280;5409;42.620;23.316;2024-03-23T06:53:00;92323.19;;;5.55;57.01
10716;BME280;5409;42.620;23.316;2024-03-23T06:55:27;92322.22;;;5.61;55.34
10716;BME280;5409;42.620;23.316;2024-03-23T06:57:53;92321.44;;;5.61;54.91
10716;BME280;5409;42.620;23.316;2024-03-23T07:00:18;92316.59;;;5.64;54.45
10716;BME280;5409;42.620;23.316;2024-03-23T07:02:44;92318.81;;;5.83;54.63
10716;BME280;5409;42.620;23.316;2024-03-23T07:05:10;92309.22;;;6.00;54.35
10716;BME280;5409;42.620;23.316;2024-03-23T07:07:36;92305.09;;;5.99;53.83
10716;BME280;5409;42.620;23.316;2024-03-23T07:10:02;92305.34;;;5.97;53.43
10716;BME280;5409;42.620;23.316;2024-03-23T07:12:28;92305.22;;;6.14;53.38
10716;BME280;5409;42.620;23.316;2024-03-23T07:14:53;92304.59;;;6.02;54.28
10716;BME280;5409;42.620;23.316;2024-03-23T07:17:19;92305.28;;;6.19;53.47
10716;BME280;5409;42.620;23.316;2024-03-23T07:19:44;92306.31;;;6.23;54.15
10716;BME280;5409;42.620;23.316;2024-03-23T07:22:09;92304.88;;;6.37;52.84
10716;BME280;5409;42.620;23.316;2024-03-23T07:24:35;92304.50;;;6.61;52.83
10716;BME280;5409;42.620;23.316;2024-03-23T07:27:01;92299.94;;;6.78;51.81
10716;BME280;5409;42.620;23.316;2024-03-23T07:29:27;92295.81;;;6.72;52.66
10716;BME280;5409;42.620;23.316;2024-03-23T07:31:52;92293.06;;;6.93;52.42
10716;BME280;5409;42.620;23.316;2024-03-23T07:34:18;92293.69;;;7.11;51.10
10716;BME280;5409;42.620;23.316;2024-03-23T07:36:43;92291.66;;;7.23;52.66
10716;BME280;5409;42.620;23.316;2024-03-23T07:39:09;92290.38;;;7.25;51.32
10716;BME280;5409;42.620;23.316;2024-03-23T07:41:34;92216.38;;;6.95;50.85
10716;BME280;5409;42.620;23.316;2024-03-23T07:44:00;92295.09;;;7.54;50.10
10716;BME280;5409;42.620;23.316;2024-03-23T07:46:26;92288.44;;;7.73;49.56
10716;BME280;5409;42.620;23.316;2024-03-23T07:48:51;92278.38;;;7.71;50.11
10716;BME280;5409;42.620;23.316;2024-03-23T07:51:21;92298.75;;;7.78;49.39
10716;BME280;5409;42.620;23.316;2024-03-23T07:53:47;92284.06;;;7.78;49.25
10716;BME280;5409;42.620;23.316;2024-03-23T07:56:14;92288.47;;;7.93;49.57
10716;BME280;5409;42.620;23.316;2024-03-23T07:58:43;92284.84;;;7.99;48.51
10716;BME280;5409;42.620;23.316;2024-03-23T08:01:12;92291.03;;;7.98;49.69
10716;BME280;5409;42.620;23.316;2024-03-23T08:03:40;92289.22;;;8.19;48.41
10716;BME280;5409;42.620;23.316;2024-03-23T08:06:13;92291.31;;;8.37;47.98
10716;BME280;5409;42.620;23.316;2024-03-23T08:08:40;92289.00;;;8.46;47.51
10716;BME280;5409;42.620;23.316;2024-03-23T08:11:06;92269.88;;;8.52;48.99
10716;BME280;5409;42.620;23.316;2024-03-23T08:13:32;92296.63;;;8.91;45.57
10716;BME280;5409;42.620;23.316;2024-03-23T08:16:01;92294.03;;;8.96;46.23
10716;BME280;5409;42.620;23.316;2024-03-23T08:18:27;92279.06;;;8.93;46.08
10716;BME280;5409;42.620;23.316;2024-03-23T08:21:03;92292.16;;;9.12;45.54
10716;BME280;5409;42.620;23.316;2024-03-23T08:23:32;92286.72;;;9.24;44.82
10716;BME280;5409;42.620;23.316;2024-03-23T08:26:08;92291.66;;;9.64;44.94
10716;BME280;5409;42.620;23.316;2024-03-23T08:28:34;92288.28;;;9.69;42.75
10716;BME280;5409;42.620;23.316;2024-03-23T08:31:04;92284.22;;;10.01;42.56
10716;BME280;5409;42.620;23.316;2024-03-23T08:33:31;92278.38;;;10.25;43.01
10716;BME280;5409;42.620;23.316;2024-03-23T08:36:04;92280.09;;;10.63;43.01
10716;BME280;5409;42.620;23.316;2024-03-23T08:38:30;92282.75;;;11.06;41.01
10716;BME280;5409;42.620;23.316;2024-03-23T08:41:04;92276.53;;;11.73;40.15
10716;BME280;5409;42.620;23.316;2024-03-23T08:43:31;92273.06;;;11.96;38.37
10716;BME280;5409;42.620;23.316;2024-03-23T08:46:10;92269.00;;;12.41;37.36
10716;BME280;5409;42.620;23.316;2024-03-23T08:48:37;92272.25;;;12.66;35.63
10716;BME280;5409;42.620;23.316;2024-03-23T08:51:04;92248.84;;;13.12;36.37
10716;BME280;5409;42.620;23.316;2024-03-23T08:53:30;92251.28;;;13.58;35.31
10716;BME280;5409;42.620;23.316;2024-03-23T08:55:59;92261.25;;;13.28;33.95
10716;BME280;5409;42.620;23.316;2024-03-23T08:58:26;92262.59;;;13.39;36.04
10716;BME280;5409;42.620;23.316;2024-03-23T09:00:53;92264.16;;;14.12;33.49
10716;BME280;5409;42.620;23.316;2024-03-23T09:03:24;92243.31;;;14.57;32.88
10716;BME280;5409;42.620;23.316;2024-03-23T09:05:50;92241.56;;;14.74;32.49
10716;BME280;5409;42.620;23.316;2024-03-23T09:08:16;92254.00;;;15.17;31.02
10716;BME280;5409;42.620;23.316;2024-03-23T09:10:41;92250.50;;;15.21;30.39
10716;BME280;5409;42.620;23.316;2024-03-23T09:13:07;92242.59;;;15.44;29.79
10716;BME280;5409;42.620;23.316;2024-03-23T09:15:37;92235.13;;;16.20;28.23
10716;BME280;5409;42.620;23.316;2024-03-23T09:18:03;92236.22;;;15.84;30.48
10716;BME280;5409;42.620;23.316;2024-03-23T09:20:28;92220.97;;;16.64;28.73
10716;BME280;5409;42.620;23.316;2024-03-23T09:22:54;92228.13;;;16.75;28.37
10716;BME280;5409;42.620;23.316;2024-03-23T09:25:19;92220.38;;;17.63;27.27
10716;BME280;5409;42.620;23.316;2024-03-23T09:27:46;92221.16;;;17.85;26.23
10716;BME280;5409;42.620;23.316;2024-03-23T09:30:13;92211.38;;;18.47;25.78
10716;BME280;5409;42.620;23.316;2024-03-23T09:32:39;92213.91;;;18.77;24.65
10716;BME280;5409;42.620;23.316;2024-03-23T09:35:04;92215.38;;;19.71;24.47
10716;BME280;5409;42.620;23.316;2024-03-23T09:37:30;92202.66;;;19.73;23.20
10716;BME280;5409;42.620;23.316;2024-03-23T09:39:55;92206.06;;;19.25;24.77
10716;BME280;5409;42.620;23.316;2024-03-23T09:42:20;92203.88;;;19.39;22.89
10716;BME280;5409;42.620;23.316;2024-03-23T09:44:46;92207.13;;;19.85;22.81
10716;BME280;5409;42.620;23.316;2024-03-23T09:47:14;92204.50;;;19.85;21.04
10716;BME280;5409;42.620;23.316;2024-03-23T09:49:40;92197.69;;;20.36;20.81
10716;BME280;5409;42.620;23.316;2024-03-23T09:52:05;92198.47;;;20.24;22.70
10716;BME280;5409;42.620;23.316;2024-03-23T09:54:31;92188.75;;;19.73;21.62
10716;BME280;5409;42.620;23.316;2024-03-23T09:56:58;92187.94;;;20.96;21.85
10716;BME280;5409;42.620;23.316;2024-03-23T09:59:23;92182.25;;;21.09;20.82
10716;BME280;5409;42.620;23.316;2024-03-23T10:01:55;92174.06;;;21.81;20.02
10716;BME280;5409;42.620;23.316;2024-03-23T10:04:41;92145.22;;;20.27;21.29
10716;BME280;5409;42.620;23.316;2024-03-23T10:07:14;92167.13;;;20.75;21.65
10716;BME280;5409;42.620;23.316;2024-03-23T10:09:40;92164.31;;;20.52;21.32
10716;BME280;5409;42.620;23.316;2024-03-23T10:12:13;92158.50;;;20.47;22.32
10716;BME280;5409;42.620;23.316;2024-03-23T10:14:39;92154.81;;;21.26;19.78
10716;BME280;5409;42.620;23.316;2024-03-23T10:17:17;92163.44;;;21.58;20.59
10716;BME280;5409;42.620;23.316;2024-03-23T10:19:48;92159.28;;;22.30;19.80
10716;BME280;5409;42.620;23.316;2024-03-23T10:22:19;92156.34;;;21.62;19.67
10716;BME280;5409;42.620;23.316;2024-03-23T10:24:45;92147.41;;;22.21;19.87
10716;BME280;5409;42.620;23.316;2024-03-23T10:27:18;92133.25;;;22.93;18.70
10716;BME280;5409;42.620;23.316;2024-03-23T10:29:44;92148.28;;;22.89;19.32
10716;BME280;5409;42.620;23.316;2024-03-23T10:32:11;92144.56;;;22.71;18.54
10716;BME280;5409;42.620;23.316;2024-03-23T10:34:37;92140.25;;;23.31;18.28
10716;BME280;5409;42.620;23.316;2024-03-23T10:37:04;92139.00;;;24.34;17.99
10716;BME280;5409;42.620;23.316;2024-03-23T10:39:33;92130.25;;;24.71;16.79
10716;BME280;5409;42.620;23.316;2024-03-23T10:42:04;92123.13;;;25.19;16.16
10716;BME280;5409;42.620;23.316;2024-03-23T10:44:30;92121.28;;;24.82;17.02
10716;BME280;5409;42.620;23.316;2024-03-23T10:46:57;92116.63;;;24.68;15.58
10716;BME280;5409;42.620;23.316;2024-03-23T10:49:29;92108.56;;;24.21;16.28
10716;BME280;5409;42.620;23.316;2024-03-23T10:52:05;92110.88;;;25.00;16.07
10716;BME280;5409;42.620;23.316;2024-03-23T10:54:32;92097.97;;;24.54;17.16
10716;BME280;5409;42.620;23.316;2024-03-23T10:57:08;92096.94;;;25.10;16.62
10716;BME280;5409;42.620;23.316;2024-03-23T10:59:37;92091.16;;;24.53;16.88
10716;BME280;5409;42.620;23.316;2024-03-23T11:02:02;92088.72;;;24.38;16.50
10716;BME280;5409;42.620;23.316;2024-03-23T11:04:38;92078.78;;;25.74;16.19
10716;BME280;5409;42.620;23.316;2024-03-23T11:09:51;92071.69;;;25.99;14.02
10716;BME280;5409;42.620;23.316;2024-03-23T11:14:57;92057.25;;;25.17;14.32
10716;BME280;5409;42.620;23.316;2024-03-23T11:17:24;92060.75;;;24.07;15.80
10716;BME280;5409;42.620;23.316;2024-03-23T11:25:02;92031.97;;;23.09;16.77
10716;BME280;5409;42.620;23.316;2024-03-23T11:27:29;92043.38;;;23.72;16.42
10716;BME280;5409;42.620;23.316;2024-03-23T11:29:54;92038.59;;;23.81;16.50
10716;BME280;5409;42.620;23.316;2024-03-23T11:32:20;92033.13;;;23.37;16.28
10716;BME280;5409;42.620;23.316;2024-03-23T11:34:46;92022.69;;;24.55;16.71
10716;BME280;5409;42.620;23.316;2024-03-23T11:37:11;92018.53;;;25.02;16.00
10716;BME280;5409;42.620;23.316;2024-03-23T11:39:36;92017.94;;;25.37;15.40
10716;BME280;5409;42.620;23.316;2024-03-23T11:42:02;92013.81;;;26.47;15.58
10716;BME280;5409;42.620;23.316;2024-03-23T11:44:27;92013.03;;;27.14;14.42
10716;BME280;5409;42.620;23.316;2024-03-23T11:46:53;92001.50;;;27.74;13.63
10716;BME280;5409;42.620;23.316;2024-03-23T11:49:23;92011.09;;;27.39;13.33
10716;BME280;5409;42.620;23.316;2024-03-23T11:51:49;92005.84;;;27.11;14.21
10716;BME280;5409;42.620;23.316;2024-03-23T11:54:14;92003.56;;;27.06;14.64
10716;BME280;5409;42.620;23.316;2024-03-23T11:56:40;91998.03;;;27.80;12.81
10716;BME280;5409;42.620;23.316;2024-03-23T11:59:06;91983.03;;;27.20;13.24
10716;BME280;5409;42.620;23.316;2024-03-23T12:01:32;91975.06;;;27.03;13.46
10716;BME280;5409;42.620;23.316;2024-03-23T12:03:58;91983.25;;;27.72;13.79
10716;BME280;5409;42.620;23.316;2024-03-23T12:06:23;91975.34;;;28.31;12.95
10716;BME280;5409;42.620;23.316;2024-03-23T12:08:48;91956.09;;;28.57;12.69
10716;BME280;5409;42.620;23.316;2024-03-23T12:11:17;91957.84;;;27.46;13.43
10716;BME280;5409;42.620;23.316;2024-03-23T12:13:44;91955.66;;;27.16;14.84
10716;BME280;5409;42.620;23.316;2024-03-23T12:16:19;91952.28;;;27.99;13.02
10716;BME280;5409;42.620;23.316;2024-03-23T12:18:48;91950.31;;;28.69;11.57
10716;BME280;5409;42.620;23.316;2024-03-23T12:21:15;91946.69;;;27.80;12.32
10716;BME280;5409;42.620;23.316;2024-03-23T12:23:42;91951.22;;;28.97;13.00
10716;BME280;5409;42.620;23.316;2024-03-23T12:26:10;91950.81;;;29.69;12.00
10716;BME280;5409;42.620;23.316;2024-03-23T12:28:35;91947.81;;;30.51;10.38
10716;BME280;5409;42.620;23.316;2024-03-23T12:31:02;91944.84;;;30.19;10.97
10716;BME280;5409;42.620;23.316;2024-03-23T12:33:28;91935.22;;;30.25;11.04
10716;BME280;5409;42.620;23.316;2024-03-23T12:35:53;91936.50;;;30.67;9.57
10716;BME280;5409;42.620;23.316;2024-03-23T12:38:19;91914.59;;;28.12;11.63
10716;BME280;5409;42.620;23.316;2024-03-23T12:40:48;91916.44;;;28.66;10.66
10716;BME280;5409;42.620;23.316;2024-03-23T12:43:14;91919.88;;;27.39;12.77
10716;BME280;5409;42.620;23.316;2024-03-23T12:45:39;91909.28;;;28.04;11.32
10716;BME280;5409;42.620;23.316;2024-03-23T12:48:05;91903.91;;;28.15;10.85
10716;BME280;5409;42.620;23.316;2024-03-23T12:50:30;91911.25;;;28.48;11.18
10716;BME280;5409;42.620;23.316;2024-03-23T12:52:56;91902.41;;;29.03;12.08
10716;BME280;5409;42.620;23.316;2024-03-23T12:55:21;91906.22;;;29.02;12.18
10716;BME280;5409;42.620;23.316;2024-03-23T12:57:47;91900.47;;;29.71;10.78
10716;BME280;5409;42.620;23.316;2024-03-23T13:00:13;91906.97;;;30.51;10.36
10716;BME280;5409;42.620;23.316;2024-03-23T13:02:38;91900.53;;;31.74;10.10
10716;BME280;5409;42.620;23.316;2024-03-23T13:05:04;91894.34;;;31.77;9.29
10716;BME280;5409;42.620;23.316;2024-03-23T13:07:30;91872.69;;;31.52;6.72
10716;BME280;5409;42.620;23.316;2024-03-23T13:09:55;91888.78;;;29.62;7.92
10716;BME280;5409;42.620;23.316;2024-03-23T13:12:22;91888.44;;;30.40;8.19
10716;BME280;5409;42.620;23.316;2024-03-23T13:14:48;91866.84;;;30.04;7.50
10716;BME280;5409;42.620;23.316;2024-03-23T13:17:14;91875.56;;;29.51;8.11
10716;BME280;5409;42.620;23.316;2024-03-23T13:19:40;91872.09;;;29.54;7.78
10716;BME280;5409;42.620;23.316;2024-03-23T13:22:06;91864.16;;;28.38;8.78
10716;BME280;5409;42.620;23.316;2024-03-23T13:24:31;91871.91;;;26.41;9.33
10716;BME280;5409;42.620;23.316;2024-03-23T13:26:57;91868.25;;;23.93;10.71
10716;BME280;5409;42.620;23.316;2024-03-23T13:29:23;91858.31;;;23.06;11.49
10716;BME280;5409;42.620;23.316;2024-03-23T13:31:50;91854.63;;;22.80;12.70
10716;BME280;5409;42.620;23.316;2024-03-23T13:34:16;91822.28;;;21.78;14.20
10716;BME280;5409;42.620;23.316;2024-03-23T13:36:43;91845.59;;;21.53;13.49
10716;BME280;5409;42.620;23.316;2024-03-23T13:39:09;91845.81;;;21.90;12.88
10716;BME280;5409;42.620;23.316;2024-03-23T13:41:44;91836.25;;;22.05;13.43
10716;BME280;5409;42.620;23.316;2024-03-23T13:44:13;91841.34;;;23.07;12.35
10716;BME280;5409;42.620;23.316;2024-03-23T13:46:42;91837.16;;;24.27;12.80
10716;BME280;5409;42.620;23.316;2024-03-23T13:49:18;91842.53;;;25.14;11.66
10716;BME280;5409;42.620;23.316;2024-03-23T13:51:49;91846.72;;;25.25;10.97
10716;BME280;5409;42.620;23.316;2024-03-23T13:54:14;91833.19;;;25.90;10.35
10716;BME280;5409;42.620;23.316;2024-03-23T13:56:39;91838.53;;;25.94;10.90
10716;BME280;5409;42.620;23.316;2024-03-23T13:59:05;91830.50;;;25.48;11.42
10716;BME280;5409;42.620;23.316;2024-03-23T14:01:30;91835.47;;;25.95;10.75
10716;BME280;5409;42.620;23.316;2024-03-23T14:03:57;91822.88;;;25.32;10.94
10716;BME280;5409;42.620;23.316;2024-03-23T14:06:22;91836.69;;;24.76;11.17
10716;BME280;5409;42.620;23.316;2024-03-23T14:08:49;91825.84;;;25.13;10.87